Time;durP1;ratioP1;P1;durP2;ratioP2;P2;SDS_P1;SDS_P2;PMS_P1;PMS_P2;Temp;Humidity;BMP_temperature;BMP_pressure;BME280_temperature;BME280_humidity;BME280_pressure;Samples;Min_cycle;Max_cycle;Signal;HPM_P1;HPM_P2
2022/01/18 00:02:08;;;;;;;16.65;7.57;;;5.30;99.90;;;;;;5065335;28;20106;-76
2022/01/18 00:04:35;;;;;;;17.38;7.93;;;5.40;99.90;;;;;;5067762;28;20241;-75
2022/01/18 00:07:01;;;;;;;18.90;7.47;;;5.40;99.90;;;;;;5064605;28;21001;-75
2022/01/18 00:09:27;;;;;;;13.60;7.70;;;5.90;99.90;;;;;;5067140;28;20052;-75
2022/01/18 00:12:13;;;;;;;19.60;7.93;;;5.40;99.90;;;;;;5067609;28;20279;-76
2022/01/18 00:14:42;;;;;;;20.33;7.63;;;5.90;99.90;;;;;;5066097;28;20052;-75
2022/01/18 00:17:24;;;;;;;13.55;7.43;;;5.30;99.90;;;;;;5065197;28;20505;-76
2022/01/18 00:19:55;;;;;;;13.05;7.60;;;4.90;99.90;;;;;;5067647;28;20071;-75
2022/01/18 00:22:23;;;;;;;17.58;7.70;;;5.60;99.90;;;;;;5070561;28;20048;-76
2022/01/18 00:24:49;;;;;;;14.20;7.30;;;5.20;99.90;;;;;;5069564;28;20106;-75
2022/01/18 00:27:17;;;;;;;10.48;6.35;;;5.20;99.90;;;;;;5067190;28;20506;-75
2022/01/18 00:30:07;;;;;;;12.70;6.65;;;5.20;99.90;;;;;;5073987;28;20043;-75
2022/01/18 00:35:01;;;;;;;18.83;8.20;;;5.50;99.90;;;;;;5073383;28;20439;-76
2022/01/18 00:37:35;;;;;;;14.07;6.30;;;5.30;99.90;;;;;;5065142;28;20045;-75
2022/01/18 00:40:03;;;;;;;14.77;6.78;;;5.50;99.90;;;;;;5074196;28;20098;-76
2022/01/18 00:42:29;;;;;;;12.85;7.10;;;4.90;99.90;;;;;;5067755;28;20060;-76
2022/01/18 00:44:55;;;;;;;16.10;7.60;;;4.90;99.90;;;;;;5064340;28;20045;-76
2022/01/18 00:47:21;;;;;;;12.23;6.72;;;5.00;99.90;;;;;;5064955;28;20036;-75
2022/01/18 00:49:48;;;;;;;13.23;6.32;;;5.00;99.90;;;;;;5065744;28;20067;-76
2022/01/18 00:52:17;;;;;;;11.45;7.00;;;4.90;99.90;;;;;;5065205;28;20543;-76
2022/01/18 00:54:45;;;;;;;11.70;6.32;;;4.90;99.90;;;;;;5067240;28;20036;-75
2022/01/18 00:57:11;;;;;;;13.95;7.28;;;5.00;99.90;;;;;;5063600;28;20037;-75
2022/01/18 00:59:40;;;;;;;17.25;7.85;;;4.90;99.90;;;;;;5065748;28;20040;-76
2022/01/18 01:02:07;;;;;;;12.57;6.20;;;4.90;99.90;;;;;;5067306;28;20102;-76
2022/01/18 01:04:37;;;;;;;14.43;6.53;;;4.70;99.90;;;;;;5066668;28;20041;-76
2022/01/18 01:07:03;;;;;;;12.05;6.90;;;4.90;99.90;;;;;;5065555;28;20040;-75
2022/01/18 01:09:29;;;;;;;12.88;6.80;;;4.70;99.90;;;;;;5066450;28;20854;-75
2022/01/18 01:11:55;;;;;;;11.35;5.13;;;4.90;99.90;;;;;;5063947;28;20129;-76
2022/01/18 01:14:24;;;;;;;13.90;6.88;;;5.00;99.90;;;;;;5067542;28;20044;-76
2022/01/18 01:19:30;;;;;;;12.70;6.68;;;4.50;99.90;;;;;;5066257;28;20519;-75
2022/01/18 01:35:51;;;;;;;8.40;5.53;;;5.80;99.90;;;;;;5066983;28;20048;-76
2022/01/18 01:44:02;;;;;;;10.00;5.22;;;4.90;99.90;;;;;;5068891;28;20045;-75
2022/01/18 01:46:29;;;;;;;14.27;6.72;;;5.50;99.90;;;;;;5066373;28;20147;-75
2022/01/18 01:48:57;;;;;;;11.43;7.00;;;4.90;99.90;;;;;;5063741;28;21739;-75
2022/01/18 01:51:29;;;;;;;11.02;5.35;;;4.80;99.90;;;;;;5061022;28;20131;-76
2022/01/18 01:54:00;;;;;;;12.93;6.05;;;5.10;99.90;;;;;;5065592;28;20072;-76
2022/01/18 01:56:28;;;;;;;11.30;6.07;;;4.80;99.90;;;;;;5064631;28;20132;-76
2022/01/18 01:58:54;;;;;;;13.65;6.00;;;4.70;99.90;;;;;;5062189;28;20128;-76
2022/01/18 02:01:20;;;;;;;12.45;5.80;;;4.40;99.90;;;;;;5068054;28;20116;-76
2022/01/18 02:03:46;;;;;;;12.27;6.20;;;4.70;99.90;;;;;;5069998;28;20054;-75
2022/01/18 02:06:13;;;;;;;9.88;5.68;;;4.60;99.90;;;;;;5068694;28;20119;-76
2022/01/18 02:08:38;;;;;;;9.35;5.50;;;4.80;99.90;;;;;;5068343;28;20033;-76
2022/01/18 02:11:04;;;;;;;9.10;4.50;;;4.60;99.90;;;;;;5071084;28;20041;-76
2022/01/18 02:13:32;;;;;;;13.48;6.45;;;4.60;99.90;;;;;;5069607;28;20055;-76
2022/01/18 02:23:55;;;;;;;16.60;6.25;;;4.50;99.90;;;;;;5066980;28;20045;-76
2022/01/18 02:26:21;;;;;;;8.30;5.43;;;4.70;99.90;;;;;;5068142;28;20933;-76
2022/01/18 02:28:47;;;;;;;14.13;5.85;;;4.50;99.90;;;;;;5071686;28;20522;-76
2022/01/18 02:31:12;;;;;;;13.95;6.75;;;4.50;99.90;;;;;;5068456;28;20047;-76
2022/01/18 02:33:38;;;;;;;9.30;5.00;;;4.40;99.90;;;;;;5067105;28;20647;-77
2022/01/18 02:36:08;;;;;;;14.35;5.80;;;4.00;99.90;;;;;;5072487;28;20558;-76
2022/01/18 02:38:34;;;;;;;13.55;6.63;;;4.30;99.90;;;;;;5067229;28;20071;-76
2022/01/18 02:40:59;;;;;;;11.27;5.55;;;4.00;99.90;;;;;;5067436;28;20178;-76
2022/01/18 02:46:10;;;;;;;8.93;4.25;;;4.60;99.90;;;;;;5066897;28;20052;-76
2022/01/18 02:48:36;;;;;;;11.15;5.93;;;4.30;99.90;;;;;;5074228;28;20048;-76
2022/01/18 02:51:02;;;;;;;9.70;4.95;;;4.30;99.90;;;;;;5070136;28;20495;-76
2022/01/18 02:53:28;;;;;;;7.72;5.15;;;3.90;99.90;;;;;;5067709;28;20049;-76
2022/01/18 02:55:56;;;;;;;13.20;5.35;;;4.20;99.90;;;;;;5067597;28;20068;-76
2022/01/18 02:58:31;;;;;;;10.23;5.53;;;3.90;99.90;;;;;;5067843;28;20048;-76
2022/01/18 03:03:30;;;;;;;;;;;4.20;99.90;;;;;;5066738;28;20056;-75
2022/01/18 03:05:57;;;;;;;6.82;3.35;;;4.10;99.90;;;;;;5070349;28;19921;-76
2022/01/18 03:08:24;;;;;;;10.43;5.03;;;4.10;99.90;;;;;;5069949;28;20044;-75
2022/01/18 03:10:50;;;;;;;9.05;4.43;;;4.10;99.90;;;;;;5067481;28;20127;-76
2022/01/18 03:13:18;;;;;;;10.52;5.18;;;3.80;99.90;;;;;;5074414;28;20095;-76
2022/01/18 03:15:44;;;;;;;10.10;5.78;;;4.00;99.90;;;;;;5066740;28;20576;-76
2022/01/18 03:18:11;;;;;;;10.50;4.90;;;4.00;99.90;;;;;;5069305;28;20037;-76
2022/01/18 03:20:38;;;;;;;10.90;4.95;;;4.00;99.90;;;;;;5060709;28;20048;-76
2022/01/18 03:23:09;;;;;;;8.85;4.85;;;4.00;99.90;;;;;;5068216;28;20601;-76
2022/01/18 03:28:05;;;;;;;10.35;5.15;;;3.90;99.90;;;;;;5067351;28;20053;-76
2022/01/18 03:30:39;;;;;;;11.82;6.07;;;4.00;99.90;;;;;;5069536;28;20041;-76
2022/01/18 03:33:07;;;;;;;11.18;6.20;;;4.00;99.90;;;;;;5066547;28;20107;-76
2022/01/18 03:35:33;;;;;;;10.93;5.50;;;4.00;99.90;;;;;;5064136;28;20275;-75
2022/01/18 03:37:59;;;;;;;14.00;7.25;;;4.00;99.90;;;;;;5064409;28;20044;-75
2022/01/18 03:40:25;;;;;;;11.95;5.82;;;4.00;99.90;;;;;;5065850;28;20036;-75
2022/01/18 03:42:54;;;;;;;10.60;4.40;;;3.90;99.90;;;;;;5065142;28;20075;-75
2022/01/18 03:45:24;;;;;;;12.50;6.32;;;4.00;99.90;;;;;;5061975;28;20045;-75
2022/01/18 03:47:51;;;;;;;10.75;6.07;;;4.10;99.90;;;;;;5066427;28;20177;-75
2022/01/18 03:50:17;;;;;;;11.48;5.47;;;3.90;99.90;;;;;;5062266;28;20119;-76
2022/01/18 03:52:46;;;;;;;12.15;6.15;;;4.00;99.90;;;;;;5066080;28;20052;-75
2022/01/18 03:55:14;;;;;;;8.93;5.70;;;3.90;99.90;;;;;;5065307;28;20096;-76
2022/01/18 03:57:40;;;;;;;8.80;5.47;;;4.70;99.90;;;;;;5062608;28;20584;-76
2022/01/18 04:00:10;;;;;;;12.25;7.10;;;4.00;99.90;;;;;;5062148;28;20036;-76
2022/01/18 04:02:36;;;;;;;12.38;5.75;;;4.00;99.90;;;;;;5064365;28;20051;-76
2022/01/18 04:05:03;;;;;;;13.77;6.50;;;4.70;99.90;;;;;;5067098;28;20060;-76
2022/01/18 04:07:28;;;;;;;13.70;5.63;;;4.10;99.90;;;;;;5071742;28;20040;-76
2022/01/18 04:09:54;;;;;;;11.35;6.05;;;3.80;99.90;;;;;;5062595;28;20051;-76
2022/01/18 04:12:20;;;;;;;15.68;6.18;;;3.90;99.90;;;;;;5062924;28;20044;-76
2022/01/18 04:14:45;;;;;;;11.73;5.85;;;4.20;99.90;;;;;;5064729;28;20075;-76
2022/01/18 04:28:02;;;;;;;10.50;6.07;;;4.40;99.90;;;;;;5064373;28;20047;-76
2022/01/18 04:30:28;;;;;;;15.68;7.05;;;4.30;99.90;;;;;;5064971;28;20511;-76
2022/01/18 04:32:54;;;;;;;13.93;6.70;;;4.30;99.90;;;;;;5066284;28;20040;-76
2022/01/18 04:35:19;;;;;;;10.70;5.93;;;4.40;99.90;;;;;;5069296;28;20041;-76
2022/01/18 04:37:45;;;;;;;14.98;6.88;;;4.70;99.90;;;;;;5061562;28;20044;-76
2022/01/18 04:40:15;;;;;;;14.00;7.95;;;4.10;99.90;;;;;;5073734;28;20040;-76
2022/01/18 04:50:40;;;;;;;14.32;6.50;;;4.20;99.90;;;;;;5065744;28;20106;-76
2022/01/18 04:53:07;;;;;;;15.57;5.75;;;4.00;99.90;;;;;;5065100;28;20526;-76
2022/01/18 04:55:33;;;;;;;15.20;7.45;;;4.40;99.90;;;;;;5066709;28;20033;-76
2022/01/18 04:57:59;;;;;;;17.15;6.05;;;4.40;99.90;;;;;;5066860;28;20430;-76
2022/01/18 05:00:25;;;;;;;17.17;8.25;;;4.20;99.90;;;;;;5061306;28;20048;-76
2022/01/18 05:02:52;;;;;;;14.95;5.70;;;4.50;99.90;;;;;;5066325;28;20050;-76
2022/01/18 05:05:25;;;;;;;14.00;6.43;;;4.10;99.90;;;;;;5065622;28;20047;-76
2022/01/18 05:07:59;;;;;;;17.60;6.53;;;4.90;99.90;;;;;;5062788;28;20589;-76
2022/01/18 05:10:27;;;;;;;14.23;6.75;;;5.00;99.90;;;;;;5063211;28;20053;-76
2022/01/18 05:12:55;;;;;;;16.17;6.40;;;4.90;99.90;;;;;;5065327;28;20047;-76
2022/01/18 05:23:16;;;;;;;9.10;4.68;;;4.30;99.90;;;;;;5039304;28;20057;-76
2022/01/18 05:25:45;;;;;;;10.75;5.30;;;4.30;99.90;;;;;;5062985;28;20701;-76
2022/01/18 05:28:12;;;;;;;14.20;7.22;;;3.90;99.90;;;;;;5066210;28;20036;-76
2022/01/18 05:30:37;;;;;;;15.10;7.22;;;4.80;99.90;;;;;;5066649;28;20040;-76
2022/01/18 05:33:03;;;;;;;13.70;5.55;;;4.20;99.90;;;;;;5063247;28;20443;-76
2022/01/18 05:35:29;;;;;;;15.77;6.95;;;3.90;99.90;;;;;;5080989;27;20414;-76
2022/01/18 05:37:55;;;;;;;14.48;7.13;;;4.20;99.90;;;;;;5063410;28;20044;-76
2022/01/18 05:40:21;;;;;;;15.02;7.20;;;4.00;99.90;;;;;;5065605;28;20052;-76
2022/01/18 05:42:47;;;;;;;10.73;6.22;;;4.20;99.90;;;;;;5062481;28;20037;-76
2022/01/18 05:45:13;;;;;;;11.95;6.40;;;4.10;99.90;;;;;;5061824;28;20056;-76
2022/01/18 05:47:40;;;;;;;11.85;6.15;;;4.50;99.90;;;;;;5065553;28;20041;-76
2022/01/18 05:50:07;;;;;;;12.10;5.93;;;4.10;99.90;;;;;;5061503;28;20052;-76
2022/01/18 05:52:33;;;;;;;17.52;7.25;;;4.00;99.90;;;;;;5068262;28;20098;-76
2022/01/18 05:54:59;;;;;;;12.18;4.10;;;4.10;99.90;;;;;;5070419;28;20041;-76
2022/01/18 05:57:26;;;;;;;13.68;5.72;;;3.60;99.90;;;;;;5069047;28;20045;-76
2022/01/18 05:59:54;;;;;;;12.50;5.57;;;4.50;99.90;;;;;;5064985;28;20131;-76
2022/01/18 06:02:36;;;;;;;14.57;6.13;;;4.00;99.90;;;;;;5068230;28;20073;-76
2022/01/18 06:07:46;;;;;;;11.88;5.63;;;4.00;99.90;;;;;;5064028;28;20099;-77
2022/01/18 06:10:12;;;;;;;15.93;6.72;;;4.00;99.90;;;;;;5064956;28;20068;-75
2022/01/18 06:12:39;;;;;;;12.82;6.70;;;4.00;99.90;;;;;;5064746;28;20401;-76
2022/01/18 06:15:06;;;;;;;14.52;6.82;;;3.80;99.90;;;;;;5061986;28;20041;-76
2022/01/18 06:17:32;;;;;;;16.02;8.18;;;4.00;99.90;;;;;;5065940;28;20041;-80
2022/01/18 06:19:58;;;;;;;18.33;7.18;;;4.00;99.90;;;;;;5065560;28;20629;-82
2022/01/18 06:22:24;;;;;;;14.95;6.97;;;5.10;99.90;;;;;;5068502;28;20652;-77
2022/01/18 06:24:50;;;;;;;17.38;8.20;;;4.00;99.90;;;;;;5068102;28;20267;-77
2022/01/18 06:27:16;;;;;;;15.35;7.25;;;4.10;99.90;;;;;;5066594;28;20044;-76
2022/01/18 06:29:41;;;;;;;17.23;7.00;;;3.60;99.90;;;;;;5064068;28;20068;-76
2022/01/18 06:32:08;;;;;;;13.30;6.35;;;3.80;99.90;;;;;;5065003;28;20511;-76
2022/01/18 06:34:34;;;;;;;13.50;6.63;;;4.00;99.90;;;;;;5063626;28;20045;-76
2022/01/18 06:37:00;;;;;;;13.43;4.95;;;4.00;99.90;;;;;;5065749;28;20036;-76
2022/01/18 06:39:26;;;;;;;15.02;6.15;;;4.00;99.90;;;;;;5064752;28;20056;-76
2022/01/18 06:41:52;;;;;;;13.32;5.88;;;4.00;99.90;;;;;;5064675;28;20124;-76
2022/01/18 06:44:17;;;;;;;13.77;7.03;;;4.00;99.90;;;;;;5064463;28;20048;-76
2022/01/18 06:46:43;;;;;;;14.52;7.03;;;4.00;99.90;;;;;;5065236;28;20041;-76
2022/01/18 06:49:09;;;;;;;12.05;6.28;;;4.30;99.90;;;;;;5066459;28;20175;-76
2022/01/18 06:51:35;;;;;;;9.60;4.95;;;3.60;99.90;;;;;;5071994;28;20132;-77
2022/01/18 06:54:01;;;;;;;7.47;4.00;;;4.10;99.90;;;;;;5069076;28;20133;-77
2022/01/18 06:56:27;;;;;;;13.35;5.15;;;4.00;99.90;;;;;;5071053;28;20047;-76
2022/01/18 06:58:53;;;;;;;16.73;6.50;;;3.90;99.90;;;;;;5068745;28;20033;-76
2022/01/18 07:01:20;;;;;;;7.15;4.05;;;4.00;99.90;;;;;;5076683;28;20036;-76
2022/01/18 07:03:48;;;;;;;17.20;6.28;;;3.90;99.90;;;;;;5068598;28;20047;-76
2022/01/18 07:06:15;;;;;;;12.70;5.72;;;3.60;99.90;;;;;;5072927;28;20041;-76
2022/01/18 07:08:41;;;;;;;12.73;5.65;;;4.00;99.90;;;;;;5071765;28;20955;-76
2022/01/18 07:11:07;;;;;;;10.68;5.07;;;3.90;99.90;;;;;;5068790;28;20064;-76
2022/01/18 07:13:33;;;;;;;15.27;7.43;;;4.00;99.90;;;;;;5070046;28;20040;-76
2022/01/18 07:15:59;;;;;;;13.85;5.22;;;4.00;99.90;;;;;;5072562;28;20111;-76
2022/01/18 07:18:26;;;;;;;12.02;5.90;;;4.00;99.90;;;;;;5070910;28;20793;-77
2022/01/18 07:20:52;;;;;;;23.00;9.63;;;3.60;99.90;;;;;;5072054;28;20471;-79
2022/01/18 07:23:18;;;;;;;11.70;5.53;;;4.00;99.90;;;;;;5069774;28;20098;-77
2022/01/18 07:25:46;;;;;;;13.88;5.88;;;4.00;99.90;;;;;;5070363;28;20052;-78
2022/01/18 07:28:15;;;;;;;16.83;7.45;;;3.70;99.90;;;;;;5070826;28;20032;-77
2022/01/18 07:30:42;;;;;;;12.60;5.82;;;4.10;99.90;;;;;;5071921;28;20040;-78
2022/01/18 07:33:08;;;;;;;15.52;5.95;;;4.40;99.90;;;;;;5069551;28;20049;-79
2022/01/18 07:35:35;;;;;;;13.25;6.30;;;4.10;99.90;;;;;;5076274;28;20095;-78
2022/01/18 07:38:02;;;;;;;10.68;5.78;;;4.30;99.90;;;;;;5068561;28;20044;-77
2022/01/18 07:40:30;;;;;;;13.15;5.95;;;4.60;99.90;;;;;;5072522;28;20040;-77
2022/01/18 07:42:59;;;;;;;7.40;4.93;;;4.00;99.90;;;;;;5067191;28;20426;-80
2022/01/18 07:45:25;;;;;;;10.07;5.45;;;4.20;99.90;;;;;;5073417;28;20055;-77
2022/01/18 07:47:51;;;;;;;12.90;5.75;;;4.00;99.90;;;;;;5067489;28;20040;-77
2022/01/18 07:50:16;;;;;;;8.68;4.88;;;4.00;99.90;;;;;;5070168;28;20049;-77
2022/01/18 07:52:43;;;;;;;15.38;6.68;;;4.00;99.90;;;;;;5069698;28;20037;-77
2022/01/18 07:55:09;;;;;;;12.35;5.22;;;4.10;99.90;;;;;;5067560;28;20037;-76
2022/01/18 07:57:41;;;;;;;10.35;5.57;;;4.10;99.90;;;;;;5069786;28;20960;-77
2022/01/18 08:00:11;;;;;;;11.38;4.68;;;4.10;99.90;;;;;;5061020;28;20485;-77
2022/01/18 08:02:37;;;;;;;9.20;3.60;;;4.10;99.90;;;;;;5068735;28;20049;-77
2022/01/18 08:05:04;;;;;;;26.98;6.75;;;4.10;99.90;;;;;;5066621;28;20053;-77
2022/01/18 08:07:30;;;;;;;11.07;4.90;;;4.20;99.90;;;;;;5068371;28;20499;-77
2022/01/18 08:09:56;;;;;;;9.60;4.18;;;4.40;99.90;;;;;;5073371;28;20040;-77
2022/01/18 08:12:23;;;;;;;10.98;4.63;;;4.10;99.90;;;;;;5072676;28;20036;-77
2022/01/18 08:14:50;;;;;;;7.65;4.30;;;4.00;99.90;;;;;;5068450;28;20570;-77
2022/01/18 08:17:16;;;;;;;12.70;5.80;;;3.60;99.90;;;;;;5072522;28;20652;-77
2022/01/18 08:19:42;;;;;;;10.38;4.45;;;4.30;99.90;;;;;;5060587;28;20052;-76
2022/01/18 08:22:09;;;;;;;15.23;5.53;;;4.70;99.90;;;;;;5071441;28;20044;-76
2022/01/18 08:24:36;;;;;;;12.43;5.18;;;4.20;99.90;;;;;;5069851;28;20083;-76
2022/01/18 08:27:02;;;;;;;24.45;7.53;;;4.20;99.90;;;;;;5062646;28;20815;-77
2022/01/18 08:29:29;;;;;;;11.98;5.03;;;4.30;99.90;;;;;;5074616;28;20052;-77
2022/01/18 08:31:54;;;;;;;12.43;5.63;;;4.30;99.90;;;;;;5064490;28;20910;-77
2022/01/18 08:34:21;;;;;;;10.25;4.90;;;4.30;99.90;;;;;;5074023;28;20045;-77
2022/01/18 08:36:47;;;;;;;11.52;5.82;;;3.90;99.90;;;;;;5062959;28;20037;-77
2022/01/18 08:39:12;;;;;;;14.05;5.68;;;4.20;99.90;;;;;;5072724;28;20423;-77
2022/01/18 08:41:38;;;;;;;8.93;4.35;;;4.50;99.90;;;;;;5072052;28;20075;-76
2022/01/18 08:44:06;;;;;;;10.75;4.53;;;4.30;99.90;;;;;;5063805;28;20083;-76
2022/01/18 08:46:31;;;;;;;8.45;4.22;;;4.40;99.90;;;;;;5067498;28;20048;-76
2022/01/18 08:48:58;;;;;;;15.88;5.68;;;4.00;99.90;;;;;;5070956;28;20534;-77
2022/01/18 08:51:24;;;;;;;9.60;4.78;;;4.40;99.90;;;;;;5063708;28;20534;-77
2022/01/18 08:53:50;;;;;;;8.40;4.35;;;4.30;99.90;;;;;;5068811;28;20049;-77
2022/01/18 08:56:21;;;;;;;11.43;5.55;;;4.40;99.90;;;;;;5064620;28;20039;-76
2022/01/18 08:58:48;;;;;;;11.40;4.40;;;4.40;99.90;;;;;;5066993;28;20048;-76
2022/01/18 09:01:14;;;;;;;11.07;4.82;;;4.50;99.90;;;;;;5069965;28;20535;-77
2022/01/18 09:03:40;;;;;;;11.77;4.13;;;4.40;99.90;;;;;;5072045;28;20040;-77
2022/01/18 09:06:07;;;;;;;7.93;4.43;;;4.50;99.90;;;;;;5069176;28;20052;-77
2022/01/18 09:08:37;;;;;;;14.63;5.55;;;4.60;99.90;;;;;;5069273;28;20052;-77
2022/01/18 09:11:04;;;;;;;9.45;4.53;;;4.90;99.90;;;;;;5079618;27;20071;-77
2022/01/18 09:13:31;;;;;;;10.18;5.00;;;4.80;99.90;;;;;;5069344;28;20127;-77
2022/01/18 09:15:56;;;;;;;9.77;5.20;;;4.30;99.90;;;;;;5066642;28;20133;-76
2022/01/18 09:18:22;;;;;;;12.77;5.70;;;4.70;99.90;;;;;;5068540;28;20051;-77
2022/01/18 09:20:48;;;;;;;10.57;4.47;;;4.70;99.90;;;;;;5083563;28;20056;-77
2022/01/18 09:23:15;;;;;;;12.07;4.45;;;4.80;99.90;;;;;;5085142;28;20100;-76
2022/01/18 09:25:42;;;;;;;16.08;6.25;;;4.70;99.90;;;;;;5085379;28;20091;-77
2022/01/18 09:28:08;;;;;;;13.07;4.68;;;4.50;99.90;;;;;;5078924;28;20033;-77
2022/01/18 09:30:35;;;;;;;11.52;3.88;;;5.10;99.90;;;;;;5087559;28;20044;-76
2022/01/18 09:33:04;;;;;;;12.82;5.25;;;4.40;99.90;;;;;;5081077;28;20047;-77
2022/01/18 09:35:30;;;;;;;8.68;4.90;;;4.70;99.90;;;;;;5090486;28;20063;-77
2022/01/18 09:37:55;;;;;;;9.77;4.80;;;4.60;99.90;;;;;;5074420;28;20245;-76
2022/01/18 09:40:23;;;;;;;12.90;6.20;;;5.10;99.90;;;;;;5071362;28;20056;-76
2022/01/18 09:42:54;;;;;;;14.02;5.03;;;4.90;99.90;;;;;;5071295;28;20036;-76
2022/01/18 09:45:21;;;;;;;8.67;5.33;;;5.00;99.90;;;;;;5070717;28;20029;-76
2022/01/18 09:47:49;;;;;;;13.10;6.72;;;5.60;99.90;;;;;;5065447;28;20048;-77
2022/01/18 09:50:25;;;;;;;15.82;6.70;;;5.00;99.90;;;;;;5071266;28;20045;-76
2022/01/18 09:52:54;;;;;;;15.57;5.55;;;5.70;99.90;;;;;;5071422;28;20462;-76
2022/01/18 09:55:23;;;;;;;10.35;4.22;;;5.20;99.90;;;;;;5069845;28;20036;-76
2022/01/18 09:57:50;;;;;;;10.75;5.70;;;5.10;99.90;;;;;;5068859;28;20040;-76
2022/01/18 10:00:17;;;;;;;13.13;4.85;;;5.40;99.90;;;;;;5069908;28;20106;-75
2022/01/18 10:02:43;;;;;;;11.40;3.53;;;5.20;99.90;;;;;;5070800;28;20041;-76
2022/01/18 10:05:30;;;;;;;10.88;4.70;;;5.20;99.90;;;;;;5067324;28;20663;-75
2022/01/18 10:08:12;;;;;;;12.07;5.68;;;5.20;99.90;;;;;;5066465;28;20056;-76
2022/01/18 10:10:53;;;;;;;14.10;6.20;;;5.20;99.90;;;;;;5064709;28;20045;-75
2022/01/18 10:13:33;;;;;;;15.45;5.43;;;5.30;99.90;;;;;;5073073;28;20051;-76
2022/01/18 10:16:02;;;;;;;10.32;6.03;;;5.80;99.90;;;;;;5072818;28;20044;-76
2022/01/18 10:18:37;;;;;;;10.90;5.00;;;5.20;99.90;;;;;;5071336;28;20183;-76
2022/01/18 10:21:06;;;;;;;9.10;4.05;;;5.90;99.90;;;;;;5067855;28;20581;-76
2022/01/18 10:23:32;;;;;;;8.85;4.45;;;5.20;99.90;;;;;;5071635;28;20095;-75
2022/01/18 10:26:01;;;;;;;11.48;5.13;;;5.70;99.90;;;;;;5067757;28;20053;-76
2022/01/18 10:28:33;;;;;;;15.20;4.07;;;5.40;99.90;;;;;;5069212;28;20044;-76
2022/01/18 10:31:04;;;;;;;8.38;3.83;;;5.40;99.90;;;;;;5070399;28;20043;-76
2022/01/18 10:33:36;;;;;;;18.73;5.63;;;5.90;99.90;;;;;;5073189;28;20080;-76
2022/01/18 10:36:12;;;;;;;13.15;4.47;;;5.40;99.90;;;;;;5067395;28;20043;-76
2022/01/18 10:38:50;;;;;;;18.80;6.47;;;5.80;99.90;;;;;;5070974;28;20691;-76
2022/01/18 10:41:28;;;;;;;13.32;5.40;;;5.80;99.90;;;;;;5066658;28;20561;-76
2022/01/18 10:44:11;;;;;;;16.45;5.70;;;5.90;99.90;;;;;;5068416;28;20044;-77
2022/01/18 10:46:41;;;;;;;13.68;4.35;;;5.90;99.90;;;;;;5068382;28;20497;-75
2022/01/18 10:49:08;;;;;;;13.52;5.30;;;5.90;99.90;;;;;;5069512;28;20048;-76
2022/01/18 10:51:38;;;;;;;14.13;6.07;;;6.00;99.90;;;;;;5071458;28;20048;-76
2022/01/18 10:54:09;;;;;;;16.23;6.63;;;5.90;99.90;;;;;;5072259;28;20041;-76
2022/01/18 10:56:42;;;;;;;14.48;6.20;;;6.40;99.90;;;;;;5069836;28;20051;-76
2022/01/18 10:59:19;;;;;;;14.52;5.50;;;6.10;99.90;;;;;;5065881;28;20045;-76
2022/01/18 11:01:44;;;;;;;12.63;5.60;;;6.40;99.90;;;;;;5069424;28;20086;-76
2022/01/18 11:04:13;;;;;;;17.50;5.93;;;6.60;99.90;;;;;;5070015;28;20051;-76
2022/01/18 11:06:42;;;;;;;16.25;6.53;;;6.30;99.90;;;;;;5069437;28;20049;-77
2022/01/18 11:09:18;;;;;;;15.52;6.43;;;6.30;99.90;;;;;;5068800;28;20139;-76
2022/01/18 11:11:48;;;;;;;12.50;5.28;;;6.30;99.90;;;;;;5071290;28;20553;-76
2022/01/18 11:14:20;;;;;;;15.10;6.93;;;6.20;99.90;;;;;;5069734;28;20163;-75
2022/01/18 11:16:47;;;;;;;;;;;6.00;99.90;;;;;;5069596;28;20043;-80
2022/01/18 11:21:48;;;;;;;11.85;5.78;;;5.90;99.90;;;;;;5068665;28;20049;-75
2022/01/18 11:24:19;;;;;;;13.07;6.32;;;5.90;99.90;;;;;;5067907;28;20037;-75
2022/01/18 11:26:46;;;;;;;20.93;6.57;;;5.40;99.90;;;;;;5070099;28;20076;-75
2022/01/18 11:29:16;;;;;;;14.13;5.60;;;6.00;99.90;;;;;;5067346;28;20032;-75
2022/01/18 11:31:45;;;;;;;11.13;4.85;;;6.00;99.90;;;;;;5070111;28;20041;-75
2022/01/18 11:34:13;;;;;;;13.98;6.00;;;6.10;99.90;;;;;;5069279;28;20051;-75
2022/01/18 11:36:47;;;;;;;23.83;8.45;;;6.30;99.90;;;;;;5067309;28;20486;-75
2022/01/18 11:39:15;;;;;;;16.83;6.20;;;5.90;99.90;;;;;;5068633;28;20111;-75
2022/01/18 11:41:42;;;;;;;13.23;6.20;;;6.50;99.90;;;;;;5068483;28;20112;-75
2022/01/18 11:44:16;;;;;;;11.73;5.80;;;6.60;99.90;;;;;;5069041;28;20048;-75
2022/01/18 11:46:51;;;;;;;15.20;6.28;;;6.60;99.90;;;;;;5069649;28;20352;-75
2022/01/18 11:49:21;;;;;;;14.90;6.32;;;6.60;99.90;;;;;;5069393;28;20518;-75
2022/01/18 11:52:02;;;;;;;18.08;7.78;;;6.70;99.90;;;;;;5070773;28;20051;-75
2022/01/18 11:57:19;;;;;;;15.13;6.10;;;6.60;99.90;;;;;;5067766;28;20053;-75
2022/01/18 11:59:45;;;;;;;14.95;6.10;;;6.60;99.90;;;;;;5069462;28;20091;-75
2022/01/18 12:02:11;;;;;;;13.00;6.55;;;6.20;99.90;;;;;;5069695;28;20074;-75
2022/01/18 12:04:41;;;;;;;19.48;7.30;;;6.60;99.90;;;;;;5070999;28;20136;-75
2022/01/18 12:07:09;;;;;;;19.00;6.93;;;6.60;99.90;;;;;;5068030;28;20555;-75
2022/01/18 12:09:48;;;;;;;16.95;6.72;;;6.90;99.90;;;;;;5069660;28;20380;-75
2022/01/18 12:12:35;;;;;;;17.77;6.20;;;6.70;99.90;;;;;;5067766;28;20530;-76
2022/01/18 12:15:02;;;;;;;14.25;6.00;;;6.60;99.90;;;;;;5071480;28;20048;-75
2022/01/18 12:17:45;;;;;;;14.05;6.63;;;6.70;99.90;;;;;;5063142;28;20055;-76
2022/01/18 12:20:37;;;;;;;22.15;6.07;;;6.80;99.90;;;;;;5074134;28;20056;-76
2022/01/18 12:23:06;;;;;;;17.73;6.55;;;6.90;99.90;;;;;;5084389;27;20067;-75
2022/01/18 12:26:00;;;;;;;15.18;5.43;;;6.80;99.90;;;;;;5068112;28;20095;-74
2022/01/18 12:29:19;;;;;;;18.20;5.53;;;6.90;99.90;;;;;;5073017;28;20055;-76
2022/01/18 12:34:32;;;;;;;13.10;6.32;;;7.00;99.90;;;;;;5070526;28;20527;-76
2022/01/18 12:37:11;;;;;;;16.58;7.00;;;7.00;99.90;;;;;;5069032;28;20051;-75
2022/01/18 12:39:57;;;;;;;13.27;6.45;;;7.00;99.90;;;;;;5073988;28;20025;-76
2022/01/18 12:44:59;;;;;;;9.80;5.47;;;7.00;99.90;;;;;;5065128;28;20111;-77
2022/01/18 12:47:25;;;;;;;11.35;5.00;;;7.10;99.90;;;;;;5065366;28;20067;-75
2022/01/18 12:49:54;;;;;;;10.95;5.75;;;7.20;99.90;;;;;;5069792;28;20044;-77
2022/01/18 12:52:20;;;;;;;14.95;6.80;;;7.30;99.90;;;;;;5069857;28;20052;-76
2022/01/18 12:54:48;;;;;;;11.68;5.28;;;7.40;99.90;;;;;;5070716;28;20044;-76
2022/01/18 12:57:22;;;;;;;9.82;4.93;;;7.40;99.90;;;;;;5060411;28;20577;-76
2022/01/18 13:00:00;;;;;;;13.02;5.15;;;7.50;99.90;;;;;;5068821;28;20056;-76
2022/01/18 13:02:26;;;;;;;11.75;4.65;;;7.70;99.90;;;;;;5064862;28;20099;-76
2022/01/18 13:05:03;;;;;;;12.13;5.55;;;7.90;99.90;;;;;;5070689;28;20130;-77
2022/01/18 13:07:30;;;;;;;14.07;5.95;;;8.00;99.90;;;;;;5067648;28;20113;-76
2022/01/18 13:09:55;;;;;;;16.27;6.25;;;8.10;99.90;;;;;;5070862;28;20062;-76
2022/01/18 13:12:35;;;;;;;17.38;6.20;;;8.10;99.90;;;;;;5066268;28;20047;-76
2022/01/18 13:15:04;;;;;;;13.63;6.38;;;8.10;99.90;;;;;;5065805;28;20934;-76
2022/01/18 13:23:40;;;;;;;16.65;7.53;;;8.40;99.90;;;;;;5067986;28;20053;-76
2022/01/18 13:26:06;;;;;;;17.38;6.07;;;8.40;99.90;;;;;;5064019;28;20142;-77
2022/01/18 13:28:37;;;;;;;18.73;7.18;;;8.50;99.90;;;;;;5064718;28;20044;-77
2022/01/18 13:31:16;;;;;;;12.10;6.60;;;8.50;99.90;;;;;;5059594;28;20093;-77
2022/01/18 13:33:53;;;;;;;11.65;6.03;;;8.60;99.90;;;;;;5065858;28;20492;-77
2022/01/18 13:36:21;;;;;;;12.80;5.93;;;8.70;99.90;;;;;;5061093;28;20041;-77
2022/01/18 13:38:47;;;;;;;14.63;4.45;;;8.80;99.90;;;;;;5063963;28;20033;-77
2022/01/18 13:41:12;;;;;;;9.18;4.00;;;8.90;99.90;;;;;;5069767;28;20103;-77
2022/01/18 13:43:38;;;;;;;10.63;3.10;;;9.00;99.90;;;;;;5065964;28;20072;-77
2022/01/18 13:46:04;;;;;;;10.18;3.38;;;9.10;99.90;;;;;;5065538;28;20083;-77
2022/01/18 13:48:32;;;;;;;8.27;3.88;;;9.10;99.90;;;;;;5067743;28;20119;-77
2022/01/18 13:51:07;;;;;;;5.78;2.65;;;9.10;99.90;;;;;;5059971;28;20057;-78
2022/01/18 13:53:35;;;;;;;7.03;3.28;;;9.20;99.90;;;;;;5065373;28;20175;-78
2022/01/18 13:56:21;;;;;;;6.85;3.72;;;9.20;99.90;;;;;;5067107;28;20491;-77
2022/01/18 13:58:58;;;;;;;10.32;3.03;;;9.20;99.90;;;;;;5060850;28;20502;-77
2022/01/18 14:01:24;;;;;;;9.02;4.55;;;9.20;99.90;;;;;;5079346;28;20127;-77
2022/01/18 14:04:12;;;;;;;7.35;3.60;;;9.10;99.90;;;;;;5064432;28;20146;-78
2022/01/18 14:06:40;;;;;;;6.30;3.20;;;9.00;99.90;;;;;;5069380;28;20127;-78
2022/01/18 14:09:07;;;;;;;9.68;3.92;;;8.80;99.90;;;;;;5071824;28;20636;-78
2022/01/18 14:11:36;;;;;;;12.60;4.45;;;8.70;99.90;;;;;;5070965;28;20056;-77
2022/01/18 14:14:25;;;;;;;14.00;5.30;;;8.60;99.90;;;;;;5067459;28;20044;-77
2022/01/18 14:17:14;;;;;;;8.45;3.95;;;8.40;99.90;;;;;;5068639;28;20096;-78
2022/01/18 14:19:43;;;;;;;7.88;4.28;;;8.30;99.90;;;;;;5072132;28;20645;-76
2022/01/18 14:22:26;;;;;;;5.80;3.38;;;8.20;99.90;;;;;;5072764;28;20337;-76
2022/01/18 14:24:58;;;;;;;11.73;4.03;;;8.10;99.90;;;;;;5068819;28;20100;-76